createdAt,value
2019-04-29T00:02:27.716Z,9.40
2019-04-29T00:04:57.585Z,9.50
2019-04-29T00:07:27.513Z,9.40
2019-04-29T00:09:57.844Z,9.30
2019-04-29T00:12:29.468Z,9.30
2019-04-29T00:15:05.806Z,9.40
2019-04-29T00:17:46.026Z,9.50
2019-04-29T00:20:22.430Z,9.30
2019-04-29T00:22:52.252Z,9.30
2019-04-29T00:25:22.104Z,9.30
2019-04-29T00:27:51.939Z,9.40
2019-04-29T00:30:22.707Z,9.40
2019-04-29T00:32:52.481Z,9.40
2019-04-29T00:35:22.196Z,9.40
2019-04-29T00:38:10.869Z,9.30
2019-04-29T00:40:59.597Z,9.40
2019-04-29T00:44:00.204Z,9.30
2019-04-29T00:46:30.041Z,9.40
2019-04-29T00:49:00.659Z,9.30
2019-04-29T00:51:30.447Z,9.40
2019-04-29T00:54:04.613Z,9.40
2019-04-29T00:56:34.335Z,9.50
2019-04-29T00:59:04.297Z,9.50
2019-04-29T01:01:34.232Z,9.50
2019-04-29T01:04:04.056Z,9.50
2019-04-29T01:06:33.821Z,9.60
2019-04-29T01:09:04.668Z,9.60
2019-04-29T01:11:34.785Z,9.60
2019-04-29T01:14:04.752Z,9.60
2019-04-29T01:16:34.492Z,9.50
2019-04-29T01:19:04.276Z,9.60
2019-04-29T01:21:34.050Z,9.70
2019-04-29T01:24:03.903Z,9.70
2019-04-29T01:27:07.552Z,9.60
2019-04-29T01:29:37.427Z,9.60
2019-04-29T01:32:07.997Z,9.50
2019-04-29T01:34:47.594Z,9.50
2019-04-29T01:37:17.350Z,9.70
2019-04-29T01:39:53.072Z,9.80
2019-04-29T01:42:26.224Z,9.70
2019-04-29T01:44:56.036Z,9.60
2019-04-29T01:47:25.731Z,9.60
2019-04-29T01:49:55.475Z,9.80
2019-04-29T01:52:25.192Z,10.00
2019-04-29T01:54:55.120Z,10.00
2019-04-29T01:57:24.856Z,10.10
2019-04-29T01:59:54.631Z,10.10
2019-04-29T02:02:24.536Z,10.10
2019-04-29T02:04:54.458Z,10.20
2019-04-29T02:07:24.386Z,10.00
2019-04-29T02:10:08.751Z,9.80
2019-04-29T02:12:38.557Z,9.70
2019-04-29T02:15:08.561Z,9.80
2019-04-29T02:17:38.442Z,9.80
2019-04-29T02:20:08.870Z,9.80
2019-04-29T02:22:49.999Z,9.60
2019-04-29T02:25:30.962Z,9.40
2019-04-29T02:28:00.700Z,9.50
2019-04-29T02:30:44.397Z,9.50
2019-04-29T02:33:14.419Z,9.60
2019-04-29T02:35:45.600Z,9.60
2019-04-29T02:38:24.189Z,9.50
2019-04-29T02:41:11.215Z,9.50
2019-04-29T02:43:43.872Z,9.50
2019-04-29T02:46:18.157Z,9.50
2019-04-29T02:52:53.169Z,9.40
2019-04-29T02:56:20.663Z,9.50
2019-04-29T03:02:36.648Z,9.50
2019-04-29T03:05:10.681Z,9.50
2019-04-29T03:07:41.915Z,9.50
2019-04-29T03:10:12.025Z,9.50
2019-04-29T03:12:42.014Z,9.50
2019-04-29T03:15:29.794Z,9.50
2019-04-29T03:18:01.699Z,9.40
2019-04-29T03:20:44.418Z,9.40
2019-04-29T03:23:16.671Z,9.40
2019-04-29T03:25:46.459Z,9.40
2019-04-29T03:28:16.411Z,9.40
2019-04-29T03:30:46.337Z,9.50
2019-04-29T03:33:19.151Z,9.30
2019-04-29T03:35:49.129Z,9.30
2019-04-29T03:39:39.770Z,9.30
2019-04-29T03:42:07.541Z,9.20
2019-04-29T03:44:39.017Z,9.20
2019-04-29T03:47:12.928Z,9.30
2019-04-29T03:50:24.385Z,9.30
2019-04-29T03:52:56.548Z,9.40
2019-04-29T03:55:38.824Z,9.40
2019-04-29T03:58:05.131Z,9.40
2019-04-29T04:00:35.958Z,9.60
2019-04-29T04:03:24.770Z,9.50
2019-04-29T04:06:31.740Z,9.40
2019-04-29T04:09:17.356Z,9.60
2019-04-29T04:11:47.145Z,9.40
2019-04-29T04:14:16.887Z,9.50
2019-04-29T04:17:07.355Z,9.70
2019-04-29T04:19:37.163Z,10.00
2019-04-29T04:22:06.889Z,10.00
2019-04-29T04:24:36.611Z,10.10
2019-04-29T04:27:06.288Z,10.00
2019-04-29T04:29:36.070Z,10.10
2019-04-29T04:32:05.796Z,10.10
2019-04-29T04:34:35.534Z,10.10
2019-04-29T04:37:05.315Z,10.10
2019-04-29T04:39:36.662Z,10.20
2019-04-29T04:42:06.905Z,10.00
2019-04-29T04:44:49.077Z,10.00
2019-04-29T04:47:20.373Z,9.90
2019-04-29T04:49:51.111Z,9.90
2019-04-29T04:52:20.777Z,10.00
2019-04-29T04:54:52.555Z,10.00
2019-04-29T04:57:22.275Z,10.00
2019-04-29T04:59:52.769Z,10.20
2019-04-29T05:02:24.241Z,10.30
2019-04-29T05:04:53.960Z,10.30
2019-04-29T05:07:23.718Z,10.40
2019-04-29T05:09:53.579Z,10.30
2019-04-29T05:12:26.097Z,10.50
2019-04-29T05:14:55.872Z,10.60
2019-04-29T05:17:25.612Z,10.90
2019-04-29T05:19:55.358Z,11.20
2019-04-29T05:22:27.830Z,11.20
2019-04-29T05:24:57.639Z,11.00
2019-04-29T05:27:27.329Z,10.80
2019-04-29T05:29:57.053Z,10.70
2019-04-29T05:32:27.177Z,10.30
2019-04-29T05:34:58.529Z,10.10
2019-04-29T05:37:34.020Z,10.30
2019-04-29T05:40:04.037Z,10.40
2019-04-29T05:42:33.736Z,10.70
2019-04-29T05:45:20.407Z,10.80
2019-04-29T05:47:57.076Z,10.80
2019-04-29T05:50:38.595Z,10.70
2019-04-29T05:53:16.176Z,10.70
2019-04-29T05:55:44.887Z,10.60
2019-04-29T05:58:14.801Z,10.40
2019-04-29T06:00:50.270Z,10.30
2019-04-29T06:03:20.056Z,10.40
2019-04-29T06:05:51.507Z,10.40
2019-04-29T06:08:21.279Z,10.30
2019-04-29T06:10:51.044Z,10.30
2019-04-29T06:13:20.736Z,10.30
2019-04-29T06:15:50.450Z,10.30
2019-04-29T06:18:22.073Z,10.30
2019-04-29T06:21:07.959Z,10.30
2019-04-29T06:23:25.559Z,10.30
2019-04-29T06:25:55.372Z,10.40
2019-04-29T06:28:26.354Z,10.30
2019-04-29T06:30:56.431Z,10.40
2019-04-29T06:33:29.161Z,10.50
2019-04-29T06:35:57.698Z,10.30
